Time;durP1;ratioP1;P1;durP2;ratioP2;P2;SDS_P1;SDS_P2;PMS_P1;PMS_P2;Temp;Humidity;BMP_temperature;BMP_pressure;BME280_temperature;BME280_humidity;BME280_pressure;Samples;Min_cycle;Max_cycle;Signal;HPM_P1;HPM_P2
2023/09/23 00:01:25;;;;;;;;;;;;;;;20.70;46.62;100679.75;16108724;19;130676;-49
2023/09/23 00:06:49;;;;;;;5.05;0.80;;;;;;;20.72;46.61;100688.66;16111955;19;129919;-52
2023/09/23 00:12:12;;;;;;;4.75;0.80;;;;;;;20.70;46.88;100690.88;16109006;19;131122;-49
2023/09/23 00:17:37;;;;;;;3.13;0.90;;;;;;;20.69;47.06;100694.75;16110751;19;130046;-49
2023/09/23 00:23:01;;;;;;;2.95;0.88;;;;;;;20.69;47.07;100697.53;16106370;19;129581;-49
2023/09/23 00:28:30;;;;;;;2.85;0.80;;;;;;;20.68;47.00;100706.97;16109456;19;129520;-50
2023/09/23 00:33:52;;;;;;;1.73;0.80;;;;;;;20.68;46.71;100715.31;16107961;19;129570;-53
2023/09/23 00:39:14;;;;;;;2.55;0.80;;;;;;;20.67;46.92;100716.44;16110058;19;129575;-47
2023/09/23 00:44:40;;;;;;;1.90;0.70;;;;;;;20.67;47.00;100727.56;16108614;19;130034;-50
2023/09/23 00:50:03;;;;;;;;;;;;;;;20.62;47.10;100727.50;16107489;19;130832;-53
2023/09/23 00:55:28;;;;;;;2.47;0.80;;;;;;;20.63;47.01;100730.00;16100417;19;131009;-52
2023/09/23 01:00:51;;;;;;;3.03;0.60;;;;;;;20.62;46.86;100730.28;16101934;19;129825;-51
2023/09/23 01:06:16;;;;;;;1.60;0.85;;;;;;;20.61;46.84;100729.47;16110528;19;133770;-54
2023/09/23 01:11:39;;;;;;;2.53;0.60;;;;;;;20.59;46.79;100740.81;16110962;19;130990;-51
2023/09/23 01:17:01;;;;;;;2.40;0.50;;;;;;;20.59;46.71;100740.81;16114387;19;130151;-52
2023/09/23 01:22:27;;;;;;;1.38;0.60;;;;;;;20.60;47.06;100744.47;16122886;19;131597;-53
2023/09/23 01:27:49;;;;;;;1.88;0.85;;;;;;;20.58;46.71;100755.81;16112465;19;130284;-51
2023/09/23 01:33:15;;;;;;;1.67;0.50;;;;;;;20.59;46.78;100763.06;16117463;19;130323;-52
2023/09/23 01:38:37;;;;;;;;;;;;;;;20.54;47.23;100768.59;16117521;19;132710;-52
2023/09/23 01:44:00;;;;;;;1.13;0.50;;;;;;;20.56;46.71;100771.09;16125227;19;131258;-52
2023/09/23 01:49:22;;;;;;;1.52;0.50;;;;;;;20.54;46.93;100771.38;16115930;19;130446;-50
2023/09/23 01:54:45;;;;;;;1.08;0.60;;;;;;;20.54;47.23;100782.47;16118452;19;129781;-51
2023/09/23 02:00:14;;;;;;;1.77;0.50;;;;;;;20.53;46.74;100779.94;16119932;19;130782;-53
2023/09/23 02:05:36;;;;;;;3.33;0.60;;;;;;;20.53;46.80;100791.06;16117222;19;129522;-52
2023/09/23 02:10:59;;;;;;;2.38;0.65;;;;;;;20.52;47.00;100798.56;16115921;19;129726;-54
2023/09/23 02:16:21;;;;;;;1.15;0.40;;;;;;;20.50;47.06;100809.09;16115030;19;129573;-51
2023/09/23 02:21:43;;;;;;;1.00;0.55;;;;;;;20.50;47.22;100811.88;16118636;19;130325;-54
2023/09/23 02:27:05;;;;;;;1.67;0.40;;;;;;;20.49;47.32;100810.22;16117662;19;129616;-53
2023/09/23 02:32:27;;;;;;;3.13;0.50;;;;;;;20.49;46.82;100824.09;16115415;19;130409;-56
2023/09/23 02:37:50;;;;;;;1.05;0.45;;;;;;;20.49;46.87;100832.44;16115872;19;129831;-51
2023/09/23 02:43:12;;;;;;;1.40;0.60;;;;;;;20.48;47.02;100839.09;16118763;19;130102;-53
2023/09/23 02:48:34;;;;;;;0.70;0.40;;;;;;;20.49;47.06;100851.06;16107228;19;129969;-53
2023/09/23 02:53:56;;;;;;;1.40;0.50;;;;;;;20.48;47.07;100841.88;16114789;19;130445;-55
2023/09/23 02:59:26;;;;;;;1.25;0.50;;;;;;;20.47;47.24;100837.41;16114841;19;129551;-56
2023/09/23 03:04:48;;;;;;;2.17;0.52;;;;;;;20.46;46.90;100849.63;16113031;19;133994;-54
2023/09/23 03:10:13;;;;;;;1.30;0.40;;;;;;;20.45;46.78;100846.03;16113475;19;129629;-52
2023/09/23 03:15:53;;;;;;;1.30;0.50;;;;;;;20.46;47.14;100863.53;16112154;19;129976;-55
2023/09/23 03:21:15;;;;;;;2.38;0.50;;;;;;;20.45;46.81;100867.41;16104052;19;130589;-52
2023/09/23 03:26:37;;;;;;;0.55;0.40;;;;;;;20.44;47.19;100865.72;16112364;19;129572;-54
2023/09/23 03:31:59;;;;;;;0.75;0.45;;;;;;;20.44;47.14;100871.28;16110442;19;131160;-54
2023/09/23 03:37:22;;;;;;;2.15;0.70;;;;;;;20.42;46.92;100881.84;16109047;19;130204;-53
2023/09/23 03:42:46;;;;;;;1.10;0.50;;;;;;;20.42;46.76;100887.38;16112353;19;129716;-49
2023/09/23 03:48:10;;;;;;;0.73;0.30;;;;;;;20.41;47.06;100896.81;16110965;19;131075;-53
2023/09/23 03:53:32;;;;;;;1.75;0.55;;;;;;;20.42;46.87;100901.28;16108637;19;130868;-59
2023/09/23 03:58:55;;;;;;;0.90;0.50;;;;;;;20.40;47.07;100903.47;16111875;19;129740;-52
2023/09/23 04:04:17;;;;;;;0.70;0.43;;;;;;;20.39;46.95;100904.56;16110248;19;131492;-55
2023/09/23 04:09:39;;;;;;;1.30;0.55;;;;;;;20.38;47.12;100911.22;16110068;19;130917;-54
2023/09/23 04:15:02;;;;;;;1.52;0.50;;;;;;;20.38;47.26;100919.56;16114930;19;129709;-52
2023/09/23 04:20:24;;;;;;;0.82;0.43;;;;;;;20.38;46.88;100917.59;16112943;19;130839;-51
2023/09/23 04:25:49;;;;;;;0.52;0.40;;;;;;;20.38;46.89;100927.91;16107377;19;131774;-55
2023/09/23 04:31:12;;;;;;;1.33;0.50;;;;;;;20.35;47.08;100929.25;16112950;19;130573;-52
2023/09/23 04:36:34;;;;;;;1.00;0.50;;;;;;;20.35;47.34;100937.59;16107414;19;130095;-52
2023/09/23 04:41:56;;;;;;;0.50;0.30;;;;;;;20.36;46.95;100946.75;16109182;19;131279;-53
2023/09/23 04:47:19;;;;;;;0.57;0.40;;;;;;;20.34;46.93;100944.25;16116920;19;131089;-51
2023/09/23 04:52:42;;;;;;;1.35;0.40;;;;;;;20.35;47.07;100961.75;16128484;19;130488;-55
2023/09/23 04:58:04;;;;;;;1.05;0.50;;;;;;;20.34;47.22;100960.06;16127787;19;130627;-51
2023/09/23 05:03:26;;;;;;;0.85;0.50;;;;;;;20.33;47.20;100975.91;16122182;19;130934;-54
2023/09/23 05:08:48;;;;;;;0.55;0.30;;;;;;;20.33;47.20;100983.38;16116420;19;133248;-53
2023/09/23 05:14:10;;;;;;;1.50;0.45;;;;;;;20.33;47.19;100986.16;16123045;19;130528;-53
2023/09/23 05:19:32;;;;;;;1.92;0.40;;;;;;;20.31;46.85;100997.53;16124488;19;131249;-53
2023/09/23 05:24:57;;;;;;;1.25;0.52;;;;;;;20.29;46.98;101014.47;16126098;19;129680;-51
2023/09/23 05:30:19;;;;;;;1.70;0.30;;;;;;;20.28;47.31;101015.56;16119772;19;129545;-55
2023/09/23 05:35:41;;;;;;;0.60;0.40;;;;;;;20.28;47.15;101029.47;16116930;19;130528;-50
2023/09/23 05:41:03;;;;;;;0.75;0.30;;;;;;;20.28;47.02;101040.56;16115995;19;130562;-50
2023/09/23 05:46:28;;;;;;;2.67;0.43;;;;;;;20.28;47.06;101059.16;16120368;19;131394;-47
2023/09/23 05:51:54;;;;;;;0.95;0.40;;;;;;;20.27;47.42;101069.44;16116895;19;130149;-53
2023/09/23 05:57:16;;;;;;;;;;;;;;;20.22;47.07;101063.81;16124654;19;129671;-51
2023/09/23 06:02:38;;;;;;;0.50;0.40;;;;;;;20.25;47.32;101074.41;16113809;19;131039;-51
2023/09/23 06:08:00;;;;;;;1.65;0.40;;;;;;;20.23;47.27;101084.09;16116356;19;130955;-49
2023/09/23 06:13:22;;;;;;;0.80;0.35;;;;;;;20.23;47.05;101087.72;16116287;19;130779;-52
2023/09/23 06:18:44;;;;;;;1.25;0.43;;;;;;;20.23;47.22;101096.03;16116951;19;131849;-52
2023/09/23 06:24:07;;;;;;;0.80;0.50;;;;;;;20.23;46.94;101104.38;16117976;19;130125;-54
2023/09/23 06:29:30;;;;;;;0.30;0.20;;;;;;;20.22;47.24;101110.19;16117007;19;129468;-51
2023/09/23 06:34:52;;;;;;;1.52;0.40;;;;;;;20.24;47.28;101130.25;16108544;19;131678;-50
2023/09/23 06:40:14;;;;;;;5.35;0.55;;;;;;;20.28;46.93;101129.47;16116842;19;129860;-50
2023/09/23 06:45:36;;;;;;;2.42;0.60;;;;;;;20.37;46.70;101138.22;16116560;19;130560;-50
2023/09/23 06:51:03;;;;;;;3.03;0.73;;;;;;;20.48;46.59;101144.78;16112621;19;130726;-51
2023/09/23 06:56:25;;;;;;;1.85;0.68;;;;;;;20.54;46.56;101146.56;16113285;19;130096;-53
2023/09/23 07:01:48;;;;;;;5.45;0.47;;;;;;;20.60;46.21;101159.44;16110346;19;131472;-51
2023/09/23 07:07:11;;;;;;;2.72;0.80;;;;;;;20.68;46.04;101168.41;16113448;19;131269;-56
2023/09/23 07:12:33;;;;;;;1.85;0.57;;;;;;;20.74;45.61;101170.19;16111985;19;131469;-54
2023/09/23 07:17:55;;;;;;;6.20;0.80;;;;;;;20.79;45.62;101178.66;16114414;19;130034;-57
2023/09/23 07:23:17;;;;;;;3.08;0.80;;;;;;;20.83;45.61;101174.25;16111123;19;129994;-53
2023/09/23 07:28:39;;;;;;;4.32;0.80;;;;;;;20.86;45.34;101186.81;16113598;19;129339;-55
2023/09/23 07:34:01;;;;;;;2.67;0.88;;;;;;;20.87;45.48;101194.03;16109806;19;130346;-52
2023/09/23 07:39:23;;;;;;;3.55;0.85;;;;;;;20.90;45.91;101201.88;16110053;19;130972;-55
2023/09/23 07:44:45;;;;;;;1.23;0.50;;;;;;;20.94;45.56;101221.69;16114072;19;131157;-54
2023/09/23 07:50:07;;;;;;;6.28;1.00;;;;;;;20.98;45.86;101234.84;16107198;19;130228;-50
2023/09/23 07:55:30;;;;;;;3.47;0.50;;;;;;;21.01;45.89;101241.81;16106257;19;130673;-51
2023/09/23 08:00:52;;;;;;;8.63;1.00;;;;;;;21.01;45.53;101250.19;16108925;19;130542;-50
2023/09/23 08:06:14;;;;;;;4.38;0.90;;;;;;;21.00;45.74;101267.97;16110730;19;130839;-49
2023/09/23 08:11:36;;;;;;;4.97;0.88;;;;;;;20.99;45.33;101277.41;16112843;19;130355;-52
2023/09/23 08:16:58;;;;;;;2.38;0.93;;;;;;;21.01;45.36;101291.91;16109021;19;130874;-53
2023/09/23 08:22:20;;;;;;;5.45;0.90;;;;;;;21.01;45.63;101298.28;16109705;19;130644;-51
2023/09/23 08:27:42;;;;;;;6.10;1.08;;;;;;;21.01;45.36;101305.81;16109725;19;130257;-50
2023/09/23 08:33:04;;;;;;;9.65;0.82;;;;;;;21.00;45.22;101316.06;16111560;19;129493;-51
2023/09/23 08:38:26;;;;;;;3.97;1.05;;;;;;;20.96;45.31;101323.25;16113221;19;131516;-52
2023/09/23 08:43:53;;;;;;;6.38;1.20;;;;;;;20.98;45.57;101331.34;16110883;19;130101;-53
2023/09/23 08:49:16;;;;;;;6.78;1.13;;;;;;;20.98;45.57;101336.91;16105879;19;131548;-47
2023/09/23 08:54:39;;;;;;;7.15;1.30;;;;;;;20.98;45.54;101342.47;16102424;19;130986;-49
2023/09/23 09:00:07;;;;;;;12.32;1.52;;;;;;;20.98;46.07;101336.91;16111011;19;130380;-49
2023/09/23 09:05:40;;;;;;;7.68;1.05;;;;;;;21.00;45.75;101348.63;16108593;19;130643;-51
2023/09/23 09:11:02;;;;;;;7.53;1.30;;;;;;;21.00;45.98;101357.78;16110146;19;129918;-52
2023/09/23 09:16:25;;;;;;;12.82;1.70;;;;;;;21.00;46.14;101362.53;16109099;19;129463;-54
2023/09/23 09:21:49;;;;;;;15.20;1.65;;;;;;;21.00;46.04;101387.56;16106370;19;130541;-52
2023/09/23 09:27:13;;;;;;;7.78;1.40;;;;;;;20.99;45.89;101394.22;16109596;19;130194;-52
2023/09/23 09:32:39;;;;;;;6.60;1.10;;;;;;;20.96;45.67;101397.50;16109193;19;130993;-54
2023/09/23 09:38:08;;;;;;;8.02;1.50;;;;;;;20.98;45.67;101389.75;16124167;19;131165;-50
2023/09/23 09:43:39;;;;;;;8.93;1.45;;;;;;;21.00;45.66;101380.03;16119169;19;130150;-50
2023/09/23 09:49:02;;;;;;;19.95;2.45;;;;;;;21.07;45.90;101382.66;16111085;19;130378;-48
2023/09/23 09:54:25;;;;;;;17.17;2.05;;;;;;;21.12;45.52;101388.31;16115126;19;130777;-49
2023/09/23 09:59:47;;;;;;;22.92;3.08;;;;;;;21.14;45.44;101396.41;16120489;19;131272;-52
2023/09/23 10:05:17;;;;;;;14.32;2.55;;;;;;;21.17;45.53;101412.59;16124069;19;129514;-54
2023/09/23 10:10:44;;;;;;;15.20;2.55;;;;;;;21.15;45.61;101410.09;16118363;19;130603;-48
2023/09/23 10:16:12;;;;;;;11.77;1.65;;;;;;;21.13;45.43;101419.75;16112464;19;130501;-51
2023/09/23 10:21:34;;;;;;;18.27;2.05;;;;;;;21.11;45.12;101417.25;16114782;19;130976;-48
2023/09/23 10:27:04;;;;;;;10.90;1.75;;;;;;;21.12;45.31;101427.28;16121878;19;129353;-49
2023/09/23 10:32:26;;;;;;;11.95;1.88;;;;;;;21.08;45.38;101426.09;16118873;19;134096;-49
2023/09/23 10:37:48;;;;;;;10.73;1.70;;;;;;;21.09;45.16;101433.34;16120932;19;130554;-51
2023/09/23 10:43:10;;;;;;;8.30;1.98;;;;;;;21.09;45.16;101433.34;16123091;19;129465;-50
2023/09/23 10:48:33;;;;;;;9.77;1.60;;;;;;;21.11;45.10;101445.06;16119892;19;130206;-53
2023/09/23 10:53:55;;;;;;;10.23;1.55;;;;;;;21.09;45.23;101440.84;16121704;19;131894;-50
2023/09/23 10:59:18;;;;;;;8.63;1.80;;;;;;;21.08;45.47;101451.13;16121841;19;129741;-52
2023/09/23 11:04:45;;;;;;;3.78;1.10;;;;;;;21.06;45.05;101450.53;16116100;19;129377;-46
2023/09/23 11:10:07;;;;;;;5.45;1.75;;;;;;;21.06;45.32;101459.72;16119590;19;130437;-52
2023/09/23 11:15:30;;;;;;;5.03;1.40;;;;;;;21.07;45.32;101468.91;16109851;19;131010;-46
2023/09/23 11:20:52;;;;;;;4.93;1.60;;;;;;;21.07;45.48;101480.03;16112875;19;134404;-50
2023/09/23 11:26:14;;;;;;;6.95;1.60;;;;;;;21.07;45.34;101485.59;16110129;19;131294;-51
2023/09/23 11:31:37;;;;;;;5.90;1.30;;;;;;;21.08;45.09;101487.28;16093322;19;130050;-48
2023/09/23 11:36:59;;;;;;;7.47;1.35;;;;;;;21.08;45.34;101487.28;16103079;19;131073;-47
2023/09/23 11:42:21;;;;;;;4.75;1.30;;;;;;;21.08;45.41;101503.97;16107994;19;131329;-55
2023/09/23 11:47:43;;;;;;;7.78;1.60;;;;;;;21.09;45.66;101513.19;16113770;19;130469;-58
2023/09/23 11:53:05;;;;;;;7.75;1.58;;;;;;;21.10;45.62;101517.66;16107751;19;131045;-56
2023/09/23 11:58:31;;;;;;;5.72;1.58;;;;;;;21.10;45.87;101524.06;16112054;19;129704;-55
2023/09/23 12:03:58;;;;;;;7.60;1.40;;;;;;;21.09;45.79;101527.09;16113363;19;129834;-58
2023/09/23 12:09:20;;;;;;;13.18;1.70;;;;;;;21.08;45.83;101517.88;16110197;19;129588;-57
2023/09/23 12:14:45;;;;;;;6.10;1.33;;;;;;;21.09;46.12;101524.31;16117378;19;129703;-54
2023/09/23 12:20:11;;;;;;;6.13;1.13;;;;;;;21.09;46.36;101533.50;16106144;19;130930;-51
2023/09/23 12:25:33;;;;;;;6.93;1.23;;;;;;;21.10;46.36;101529.63;16115124;19;130047;-53
2023/09/23 12:30:56;;;;;;;5.32;1.20;;;;;;;21.14;46.37;101541.94;16107621;19;129557;-49
2023/09/23 12:36:18;;;;;;;7.75;1.63;;;;;;;21.17;46.66;101532.25;16111719;19;129534;-53
2023/09/23 12:41:40;;;;;;;13.18;1.67;;;;;;;21.18;46.86;101537.56;16111704;19;131810;-53
2023/09/23 12:47:02;;;;;;;10.32;1.40;;;;;;;21.17;46.53;101554.50;16115597;19;130311;-54
2023/09/23 12:52:24;;;;;;;11.15;1.70;;;;;;;21.15;46.79;101557.56;16108669;19;129187;-53
2023/09/23 12:57:48;;;;;;;9.15;1.58;;;;;;;21.14;46.44;101564.22;16106312;19;129771;-54
2023/09/23 13:03:11;;;;;;;54.13;24.80;;;;;;;21.16;47.24;101570.38;16109017;19;130600;-56
2023/09/23 13:08:36;;;;;;;67.35;33.05;;;;;;;21.22;47.63;101576.88;16117450;19;132088;-53
2023/09/23 13:13:58;;;;;;;67.45;34.95;;;;;;;21.25;48.65;101576.38;16121437;19;129784;-52
2023/09/23 13:19:20;;;;;;;78.10;33.88;;;;;;;21.27;49.25;101576.13;16122921;19;129595;-52
2023/09/23 13:24:42;;;;;;;76.30;34.67;;;;;;;21.27;49.61;101592.84;16126941;19;130660;-53
2023/09/23 13:30:05;;;;;;;72.25;31.63;;;;;;;21.27;50.13;101592.84;16113822;19;130618;-53
2023/09/23 13:35:27;;;;;;;59.25;30.88;;;;;;;21.25;50.59;101604.19;16113331;19;131156;-50
2023/09/23 13:40:50;;;;;;;79.72;36.20;;;;;;;21.27;51.28;101617.88;16116724;19;131807;-47
2023/09/23 13:46:13;;;;;;;78.80;35.03;;;;;;;21.29;51.76;101626.81;16114788;19;129916;-53
2023/09/23 13:51:35;;;;;;;83.65;36.83;;;;;;;21.32;52.38;101617.97;16114760;19;132635;-52
2023/09/23 13:56:57;;;;;;;60.88;29.90;;;;;;;21.34;52.52;101626.91;16117852;19;129997;-52
2023/09/23 14:02:19;;;;;;;74.60;35.33;;;;;;;21.36;52.86;101639.47;16111484;19;132907;-53
2023/09/23 14:07:41;;;;;;;68.65;30.92;;;;;;;21.37;53.49;101640.34;16112780;19;130550;-49
2023/09/23 14:13:04;;;;;;;60.67;27.92;;;;;;;21.36;53.33;101652.56;16110978;19;130821;-51
2023/09/23 14:18:26;;;;;;;70.72;28.00;;;;;;;21.36;53.30;101656.19;16116500;19;129555;-51
2023/09/23 14:23:48;;;;;;;53.30;24.73;;;;;;;21.37;53.53;101657.03;16122931;19;129930;-52
2023/09/23 14:29:10;;;;;;;52.60;24.58;;;;;;;21.37;53.46;101663.44;16123924;19;129678;-53
2023/09/23 14:34:32;;;;;;;75.20;36.63;;;;;;;21.39;53.33;101666.00;16115343;19;130237;-53
2023/09/23 14:39:54;;;;;;;114.18;53.33;;;;;;;21.38;53.54;101669.88;16113790;19;129654;-51
2023/09/23 14:45:17;;;;;;;99.72;48.83;;;;;;;21.39;53.65;101674.34;16109335;19;130507;-48
2023/09/23 14:50:39;;;;;;;101.63;42.95;;;;;;;21.39;54.56;101674.34;16107798;19;133756;-53
2023/09/23 14:56:01;;;;;;;92.80;43.10;;;;;;;21.39;54.18;101677.13;16107513;19;131953;-54
2023/09/23 15:01:25;;;;;;;90.85;38.03;;;;;;;21.39;54.22;101681.84;16100942;19;130613;-51
2023/09/23 15:06:50;;;;;;;82.60;35.95;;;;;;;21.40;54.53;101684.38;16106550;19;130619;-49
2023/09/23 15:12:12;;;;;;;100.82;46.45;;;;;;;21.41;54.15;101694.44;16113698;19;130270;-53
2023/09/23 15:17:38;;;;;;;143.52;64.22;;;;;;;21.43;54.38;101697.78;16104369;19;131100;-48
2023/09/23 15:23:01;;;;;;;131.18;62.08;;;;;;;21.42;53.97;101709.19;16108991;19;132713;-50
2023/09/23 15:28:23;;;;;;;131.73;64.70;;;;;;;21.41;53.72;101710.28;16105367;19;132037;-62
2023/09/23 15:33:47;;;;;;;118.72;56.95;;;;;;;21.36;53.43;101705.44;16109573;19;130945;-57
2023/09/23 15:39:10;;;;;;;106.60;50.97;;;;;;;21.33;53.08;101719.84;16111087;19;129348;-59
2023/09/23 15:44:32;;;;;;;88.80;44.80;;;;;;;21.32;52.94;101723.72;16114499;19;130362;-55
2023/09/23 15:49:54;;;;;;;84.43;41.58;;;;;;;21.31;52.76;101735.94;16113773;19;130915;-49
2023/09/23 15:55:18;;;;;;;77.63;38.15;;;;;;;21.30;52.39;101745.38;16115474;19;130042;-58
2023/09/23 16:00:40;;;;;;;66.90;34.53;;;;;;;21.29;52.59;101757.63;16116041;19;130891;-49
2023/09/23 16:06:02;;;;;;;68.53;33.58;;;;;;;21.28;52.35;101762.34;16110438;19;130952;-56
2023/09/23 16:11:24;;;;;;;61.20;29.10;;;;;;;21.27;51.94;101770.94;16110257;19;130021;-49
2023/09/23 16:16:46;;;;;;;59.67;26.73;;;;;;;21.25;52.27;101764.75;16117262;19;133575;-50
2023/09/23 16:22:08;;;;;;;49.33;24.10;;;;;;;21.22;52.02;101771.66;16103407;19;133109;-52
2023/09/23 16:27:30;;;;;;;48.38;21.77;;;;;;;21.21;51.97;101776.38;16110321;19;129954;-48
2023/09/23 16:32:53;;;;;;;47.05;20.63;;;;;;;21.20;51.98;101785.81;16110317;19;129435;-49
2023/09/23 16:38:17;;;;;;;36.60;18.73;;;;;;;21.18;51.61;101798.28;16112573;19;130278;-49
2023/09/23 16:43:39;;;;;;;36.63;17.10;;;;;;;21.16;51.59;101806.88;16133505;19;130473;-46
2023/09/23 16:49:01;;;;;;;40.35;16.38;;;;;;;21.17;51.77;101818.84;16140749;19;131325;-58
2023/09/23 16:54:24;;;;;;;29.98;14.80;;;;;;;21.16;51.68;101820.78;16136353;19;130265;-52
2023/09/23 16:59:46;;;;;;;26.88;14.45;;;;;;;21.14;51.60;101820.19;16137409;19;129698;-54
2023/09/23 17:05:08;;;;;;;34.33;13.20;;;;;;;21.14;51.59;101828.53;16139789;19;129861;-49
2023/09/23 17:10:30;;;;;;;35.05;13.13;;;;;;;21.11;51.83;101836.53;16135647;19;130740;-49
2023/09/23 17:15:54;;;;;;;23.17;11.25;;;;;;;21.09;51.64;101845.09;16136745;19;131026;-52
2023/09/23 17:21:16;;;;;;;21.10;10.65;;;;;;;21.08;51.97;101860.09;16137208;19;131034;-53
2023/09/23 17:26:38;;;;;;;19.88;10.73;;;;;;;21.06;51.86;101868.69;16134828;19;129837;-54
2023/09/23 17:32:00;;;;;;;23.63;11.07;;;;;;;21.03;51.61;101865.53;16129977;19;130701;-49
2023/09/23 17:37:22;;;;;;;16.25;9.18;;;;;;;20.99;51.87;101867.94;16136982;19;130656;-58
2023/09/23 17:42:44;;;;;;;30.38;9.65;;;;;;;20.98;51.82;101879.31;16134669;19;131709;-51
2023/09/23 17:48:06;;;;;;;102.53;24.60;;;;;;;20.98;51.55;101882.09;16135835;19;130089;-49
2023/09/23 17:53:31;;;;;;;104.68;24.38;;;;;;;20.99;51.43;101900.47;16129782;19;130531;-53
2023/09/23 17:58:54;;;;;;;125.32;29.67;;;;;;;20.98;51.61;101904.34;16122323;19;130202;-49
2023/09/23 18:04:16;;;;;;;162.57;37.90;;;;;;;20.99;51.18;101919.97;16117672;19;130934;-50
2023/09/23 18:09:39;;;;;;;205.02;49.95;;;;;;;20.98;51.54;101923.81;16118226;19;130511;-46
2023/09/23 18:15:03;;;;;;;220.32;53.22;;;;;;;21.00;52.12;101936.41;16123487;19;129672;-45
2023/09/23 18:20:28;;;;;;;224.32;51.00;;;;;;;21.02;51.92;101938.97;16117505;19;130181;-50
2023/09/23 18:25:50;;;;;;;197.00;48.50;;;;;;;21.01;51.74;101953.94;16122679;19;130696;-52
2023/09/23 18:31:13;;;;;;;190.43;50.13;;;;;;;21.00;51.46;101960.59;16116165;19;129855;-50
2023/09/23 18:36:35;;;;;;;193.63;46.85;;;;;;;20.98;51.88;101965.53;16112472;19;129963;-50
2023/09/23 18:41:57;;;;;;;163.18;42.47;;;;;;;20.97;51.51;101972.19;16110956;19;130658;-51
2023/09/23 18:47:19;;;;;;;168.48;41.53;;;;;;;20.99;51.53;101978.38;16118773;19;130752;-50
2023/09/23 18:52:42;;;;;;;159.75;40.05;;;;;;;20.99;51.73;101981.16;16113565;19;131372;-49
2023/09/23 18:58:05;;;;;;;148.45;39.03;;;;;;;21.00;51.66;101988.41;16118305;19;130293;-50
2023/09/23 19:03:27;;;;;;;164.77;41.38;;;;;;;21.00;51.58;101997.59;16092846;19;134644;-44
2023/09/23 19:08:50;;;;;;;141.52;37.30;;;;;;;21.02;51.42;102011.28;16116490;19;129593;-49
2023/09/23 19:14:16;;;;;;;137.25;37.70;;;;;;;21.02;51.73;102016.84;16118196;19;130381;-47
2023/09/23 19:19:38;;;;;;;139.93;35.67;;;;;;;21.03;51.49;102013.00;16115794;19;130957;-46
2023/09/23 19:25:01;;;;;;;132.52;37.65;;;;;;;21.02;52.29;102026.03;16108878;19;130211;-48
2023/09/23 19:30:23;;;;;;;192.90;38.63;;;;;;;21.02;52.10;102039.94;16113997;19;130078;-48
2023/09/23 19:35:45;;;;;;;116.75;31.15;;;;;;;21.05;52.67;102039.47;16116260;19;130425;-47
2023/09/23 19:41:07;;;;;;;123.43;33.72;;;;;;;21.09;52.64;102056.56;16116444;19;130235;-46
2023/09/23 19:46:30;;;;;;;125.00;32.60;;;;;;;21.10;52.90;102063.81;16108650;19;133142;-46
2023/09/23 19:51:52;;;;;;;137.80;30.88;;;;;;;21.11;52.94;102062.72;16113055;19;130038;-49
2023/09/23 19:57:14;;;;;;;133.23;31.35;;;;;;;21.11;53.00;102064.69;16111559;19;131553;-50
2023/09/23 20:02:36;;;;;;;156.20;32.05;;;;;;;21.11;52.91;102070.25;16109115;19;130946;-47
2023/09/23 20:07:59;;;;;;;200.50;36.63;;;;;;;21.12;53.02;102077.47;16110476;19;130686;-50
2023/09/23 20:13:21;;;;;;;108.82;28.65;;;;;;;21.11;53.48;102076.66;16104315;19;131033;-47
2023/09/23 20:18:43;;;;;;;120.65;28.33;;;;;;;21.10;53.69;102074.09;16103915;19;131224;-48
2023/09/23 20:24:07;;;;;;;117.10;27.95;;;;;;;21.08;53.35;102082.66;16116203;19;130252;-46
2023/09/23 20:29:30;;;;;;;114.70;29.92;;;;;;;21.06;53.69;102082.91;16112111;19;130280;-45
2023/09/23 20:34:52;;;;;;;107.40;28.23;;;;;;;21.06;53.49;102091.25;16105639;19;130285;-51
2023/09/23 20:40:15;;;;;;;100.30;27.90;;;;;;;21.06;53.45;102090.41;16106260;19;131103;-47
2023/09/23 20:45:40;;;;;;;86.63;24.92;;;;;;;21.06;54.03;102102.41;16102686;19;129573;-52
2023/09/23 20:51:03;;;;;;;90.37;25.50;;;;;;;21.05;53.85;102105.38;16106202;19;129647;-45
2023/09/23 20:56:25;;;;;;;103.18;26.73;;;;;;;21.04;53.62;102112.91;16103807;19;131027;-46
2023/09/23 21:01:47;;;;;;;89.90;23.40;;;;;;;21.04;53.91;102118.47;16107614;19;130656;-50
2023/09/23 21:07:10;;;;;;;99.22;25.48;;;;;;;21.03;53.80;102127.91;16108286;19;129830;-45
2023/09/23 21:12:33;;;;;;;98.35;25.52;;;;;;;21.04;54.10;102125.97;16101365;19;131688;-47
2023/09/23 21:17:55;;;;;;;95.72;25.65;;;;;;;21.03;53.84;102133.47;16104858;19;131398;-48
2023/09/23 21:23:17;;;;;;;94.60;25.33;;;;;;;21.04;53.65;102134.31;16107237;19;130678;-47
2023/09/23 21:28:39;;;;;;;97.30;23.10;;;;;;;21.05;54.04;102147.13;16114112;19;130085;-48
2023/09/23 21:34:01;;;;;;;88.85;23.52;;;;;;;21.05;54.07;102153.56;16122274;19;132042;-49
2023/09/23 21:39:24;;;;;;;91.18;23.63;;;;;;;21.04;53.82;102159.38;16123977;19;130351;-51
2023/09/23 21:44:48;;;;;;;72.13;20.50;;;;;;;21.00;53.74;102163.69;16120760;19;130127;-51
2023/09/23 21:50:11;;;;;;;67.73;19.67;;;;;;;20.93;53.29;102179.59;16120303;19;131494;-48
2023/09/23 21:55:34;;;;;;;55.38;16.52;;;;;;;20.84;53.26;102185.47;16119046;19;130973;-49
2023/09/23 22:00:56;;;;;;;52.00;14.55;;;;;;;20.78;53.17;102183.63;16119275;19;129893;-52
2023/09/23 22:06:18;;;;;;;56.45;14.43;;;;;;;20.73;52.87;102186.19;16118940;19;130772;-50
2023/09/23 22:11:42;;;;;;;43.70;12.60;;;;;;;20.70;52.91;102176.41;16119823;19;130144;-52
2023/09/23 22:17:04;;;;;;;39.28;12.05;;;;;;;20.69;52.87;102184.94;16119140;19;129553;-47
2023/09/23 22:22:29;;;;;;;36.33;10.35;;;;;;;20.68;52.49;102188.81;16119819;19;130934;-46
2023/09/23 22:27:52;;;;;;;37.05;8.25;;;;;;;20.63;51.61;102191.44;16123367;19;129801;-48
2023/09/23 22:33:15;;;;;;;31.02;9.57;;;;;;;20.58;51.39;102187.41;16116223;19;130651;-48
2023/09/23 22:38:38;;;;;;;32.78;7.95;;;;;;;20.56;51.27;102186.78;16110475;19;129934;-52
2023/09/23 22:44:01;;;;;;;24.25;6.95;;;;;;;20.53;51.29;102192.81;16120093;19;130418;-50
2023/09/23 22:49:25;;;;;;;27.88;7.15;;;;;;;20.50;51.47;102196.06;16120198;19;129449;-52
2023/09/23 22:54:47;;;;;;;24.93;6.83;;;;;;;20.48;52.06;102203.78;16121677;19;129937;-52
2023/09/23 23:00:13;;;;;;;21.25;6.70;;;;;;;20.44;52.02;102206.16;16118335;19;130797;-48
2023/09/23 23:05:37;;;;;;;21.35;6.38;;;;;;;20.47;51.47;102210.41;16116959;19;129969;-50
2023/09/23 23:11:06;;;;;;;20.77;6.30;;;;;;;20.50;51.58;102201.63;16118072;19;130194;-48
2023/09/23 23:16:28;;;;;;;20.02;5.72;;;;;;;20.50;51.52;102221.06;16114752;19;130462;-51
2023/09/23 23:21:50;;;;;;;16.52;5.88;;;;;;;20.49;51.22;102230.50;16118078;19;131088;-51
2023/09/23 23:27:13;;;;;;;11.88;3.30;;;;;;;20.49;50.92;102219.38;16116779;19;130526;-52
2023/09/23 23:32:35;;;;;;;22.73;5.35;;;;;;;20.48;51.12;102223.22;16116259;19;130414;-52
2023/09/23 23:37:57;;;;;;;13.70;4.40;;;;;;;20.46;51.56;102222.59;16115300;19;129619;-54
2023/09/23 23:43:24;;;;;;;10.32;3.78;;;;;;;20.45;51.42;102221.75;16117577;19;129674;-51
2023/09/23 23:48:47;;;;;;;7.32;3.08;;;;;;;20.44;51.38;102227.53;16112818;19;130059;-48
2023/09/23 23:54:10;;;;;;;11.30;3.08;;;;;;;20.44;51.19;102236.72;16112886;19;130223;-49
2023/09/23 23:59:32;;;;;;;7.22;2.53;;;;;;;20.44;51.38;102238.66;16112683;19;131068;-51
